Time;durP1;ratioP1;P1;durP2;ratioP2;P2;SDS_P1;SDS_P2;PMS_P1;PMS_P2;Temp;Humidity;BMP_temperature;BMP_pressure;BME280_temperature;BME280_humidity;BME280_pressure;Samples;Min_cycle;Max_cycle;Signal;HPM_P1;HPM_P2
2022/05/31 00:01:38;;;;;;;7.90;3.70;;;14.40;58.20;;;;;;5098268;28;20199;-92
2022/05/31 00:04:06;;;;;;;18.80;6.50;;;14.40;58.50;;;;;;5093666;28;20210;-92
2022/05/31 00:06:35;;;;;;;7.00;3.60;;;14.30;58.50;;;;;;5112460;28;20259;-91
2022/05/31 00:09:03;;;;;;;8.57;3.63;;;14.30;58.60;;;;;;5109766;28;20736;-92
2022/05/31 00:11:31;;;;;;;16.10;6.27;;;14.30;58.80;;;;;;5104134;28;20707;-92
2022/05/31 00:13:58;;;;;;;9.43;4.60;;;14.20;58.70;;;;;;5094431;28;20271;-92
2022/05/31 00:16:27;;;;;;;10.00;4.27;;;14.20;58.70;;;;;;5100592;28;20302;-91
2022/05/31 00:18:54;;;;;;;7.50;3.50;;;14.20;59.10;;;;;;5114495;28;20299;-91
2022/05/31 00:21:23;;;;;;;7.63;3.40;;;14.10;58.90;;;;;;5105412;28;20202;-92
2022/05/31 00:23:50;;;;;;;9.00;3.90;;;14.20;59.30;;;;;;5106065;28;20269;-91
2022/05/31 00:26:17;;;;;;;6.93;3.30;;;14.10;59.30;;;;;;5104640;28;20650;-93
2022/05/31 00:28:44;;;;;;;11.30;4.60;;;14.10;59.40;;;;;;5094101;28;20213;-91
2022/05/31 00:31:11;;;;;;;11.97;4.67;;;14.10;59.50;;;;;;5105250;28;20283;-89
2022/05/31 00:33:40;;;;;;;8.17;3.50;;;14.10;59.50;;;;;;5093421;28;20281;-90
2022/05/31 00:36:09;;;;;;;7.10;3.27;;;14.10;59.70;;;;;;5094872;28;20207;-92
2022/05/31 00:38:37;;;;;;;11.90;4.80;;;14.10;59.80;;;;;;5096179;28;20216;-93
2022/05/31 00:41:25;;;;;;;12.17;4.27;;;14.00;59.80;;;;;;5093625;28;20693;-91
2022/05/31 00:43:57;;;;;;;7.73;3.60;;;14.00;60.30;;;;;;5095146;28;20639;-92
2022/05/31 00:46:27;;;;;;;11.83;4.00;;;14.00;60.00;;;;;;5103067;28;20608;-93
2022/05/31 00:49:02;;;;;;;9.60;4.60;;;14.00;60.10;;;;;;5112870;28;20201;-92
2022/05/31 00:51:38;;;;;;;9.13;4.70;;;14.00;60.20;;;;;;5103068;28;20241;-92
2022/05/31 00:54:08;;;;;;;9.50;4.57;;;14.00;60.50;;;;;;5098433;28;20205;-91
2022/05/31 00:59:23;;;;;;;9.07;4.30;;;14.00;60.30;;;;;;5103822;28;20213;-90
2022/05/31 01:01:53;;;;;;;10.23;4.70;;;14.10;60.70;;;;;;5107564;28;20216;-93
2022/05/31 01:04:41;;;;;;;19.23;7.07;;;14.10;60.70;;;;;;5114184;28;20209;-92
2022/05/31 01:07:12;;;;;;;13.97;6.40;;;14.10;60.90;;;;;;5118891;28;20272;-92
2022/05/31 01:09:39;;;;;;;11.10;5.70;;;14.10;60.20;;;;;;5116378;28;20214;-92
2022/05/31 01:12:08;;;;;;;8.63;4.70;;;14.10;60.10;;;;;;5121268;28;20237;-93
2022/05/31 01:14:38;;;;;;;14.87;7.13;;;14.10;60.30;;;;;;5111498;28;20228;-93
2022/05/31 01:17:09;;;;;;;8.40;5.47;;;14.10;60.00;;;;;;5114842;28;20267;-92
2022/05/31 01:22:30;;;;;;;14.37;6.67;;;14.20;60.50;;;;;;5116863;28;20292;-93
2022/05/31 01:25:02;;;;;;;11.53;6.63;;;14.20;60.60;;;;;;5097499;28;20222;-92
2022/05/31 01:27:40;;;;;;;15.10;6.77;;;14.20;60.90;;;;;;5081107;28;20744;-91
2022/05/31 01:30:10;;;;;;;7.27;5.63;;;14.20;61.10;;;;;;5112619;28;20210;-92
2022/05/31 01:32:42;;;;;;;20.77;8.60;;;14.10;60.70;;;;;;5115615;28;20344;-92
2022/05/31 01:35:17;;;;;;;8.30;5.37;;;14.20;61.10;;;;;;5114799;28;20660;-92
2022/05/31 01:37:51;;;;;;;15.73;7.20;;;14.20;61.00;;;;;;5104262;28;20237;-89
2022/05/31 01:40:24;;;;;;;11.13;6.00;;;14.20;61.40;;;;;;5097549;28;20295;-92
2022/05/31 01:42:51;;;;;;;10.87;6.63;;;14.20;61.20;;;;;;5096889;28;20207;-92
2022/05/31 01:45:22;;;;;;;9.73;6.03;;;14.20;61.00;;;;;;5108564;28;20229;-91
2022/05/31 01:47:50;;;;;;;12.50;6.93;;;14.20;61.30;;;;;;5097886;28;20228;-93
2022/05/31 01:50:20;;;;;;;9.80;5.97;;;14.20;61.40;;;;;;5077661;28;20218;-92
2022/05/31 01:52:50;;;;;;;8.87;5.90;;;14.20;61.40;;;;;;5099161;28;20846;-92
2022/05/31 01:55:18;;;;;;;11.60;6.20;;;14.20;61.70;;;;;;5104334;28;20213;-92
2022/05/31 01:57:49;;;;;;;12.07;6.90;;;14.20;61.50;;;;;;5106728;28;20698;-91
2022/05/31 02:00:18;;;;;;;12.33;6.83;;;14.20;61.70;;;;;;5096248;28;20248;-90
2022/05/31 02:02:48;;;;;;;13.50;7.93;;;14.20;61.80;;;;;;5097525;28;20240;-91
2022/05/31 02:05:18;;;;;;;10.50;5.80;;;14.20;61.70;;;;;;5122477;28;20250;-92
2022/05/31 02:07:54;;;;;;;12.90;7.27;;;14.20;62.00;;;;;;5119276;28;20245;-91
2022/05/31 02:10:21;;;;;;;13.47;7.73;;;14.20;62.30;;;;;;5107315;28;20263;-92
2022/05/31 02:12:56;;;;;;;10.93;7.33;;;14.20;61.70;;;;;;5119395;28;20212;-92
2022/05/31 02:15:25;;;;;;;10.50;6.63;;;14.20;62.30;;;;;;5099304;28;20216;-91
2022/05/31 02:17:52;;;;;;;12.07;6.70;;;14.30;63.00;;;;;;5099593;28;20234;-91
2022/05/31 02:20:19;;;;;;;13.10;7.17;;;14.20;62.10;;;;;;5096515;28;20579;-89
2022/05/31 02:22:46;;;;;;;13.40;8.07;;;14.20;62.10;;;;;;5080355;28;20264;-92
2022/05/31 02:25:17;;;;;;;14.17;7.90;;;14.30;62.40;;;;;;5098310;28;20214;-91
2022/05/31 02:27:45;;;;;;;14.53;7.93;;;14.20;62.30;;;;;;5096666;28;20242;-91
2022/05/31 02:30:13;;;;;;;17.73;9.07;;;14.20;62.30;;;;;;5110366;28;20205;-90
2022/05/31 02:32:41;;;;;;;17.03;8.27;;;14.20;62.30;;;;;;5114474;28;20289;-92
2022/05/31 02:35:10;;;;;;;14.47;8.63;;;14.20;62.40;;;;;;5112861;28;20230;-91
2022/05/31 02:37:39;;;;;;;12.00;7.43;;;14.20;62.40;;;;;;5105676;28;20592;-91
2022/05/31 02:40:08;;;;;;;13.93;8.07;;;14.20;62.40;;;;;;5094057;28;20214;-90
2022/05/31 02:42:39;;;;;;;12.20;7.60;;;14.20;62.40;;;;;;5094013;28;20225;-91
2022/05/31 02:45:08;;;;;;;10.93;7.60;;;14.20;62.70;;;;;;5092889;28;20304;-90
2022/05/31 02:47:39;;;;;;;14.90;8.60;;;14.20;62.50;;;;;;5096417;28;20749;-92
2022/05/31 02:50:10;;;;;;;13.13;7.97;;;14.20;62.70;;;;;;5095340;28;20214;-90
2022/05/31 02:52:43;;;;;;;13.03;8.07;;;14.20;62.80;;;;;;5115491;28;20217;-91
2022/05/31 02:55:11;;;;;;;17.77;8.70;;;14.20;63.00;;;;;;5096285;28;20224;-91
2022/05/31 02:57:40;;;;;;;12.97;9.10;;;14.20;62.50;;;;;;5101250;28;20225;-91
2022/05/31 03:00:08;;;;;;;10.77;7.87;;;14.20;62.90;;;;;;5106386;28;20237;-91
2022/05/31 03:02:36;;;;;;;14.03;7.93;;;14.20;62.90;;;;;;5100055;28;20588;-91
2022/05/31 03:05:05;;;;;;;11.80;7.37;;;14.20;63.00;;;;;;5106974;28;20224;-91
2022/05/31 03:07:33;;;;;;;10.33;7.43;;;14.10;62.90;;;;;;5116664;28;20229;-92
2022/05/31 03:10:01;;;;;;;15.77;9.10;;;14.10;62.90;;;;;;5098790;28;20206;-92
2022/05/31 03:12:32;;;;;;;17.57;9.10;;;14.10;63.00;;;;;;5101120;28;20304;-94
2022/05/31 03:15:05;;;;;;;13.87;8.37;;;14.10;63.10;;;;;;5099253;28;20253;-91
2022/05/31 03:17:36;;;;;;;12.87;8.37;;;14.10;63.30;;;;;;5114289;28;20725;-91
2022/05/31 03:20:09;;;;;;;10.27;8.03;;;14.10;63.20;;;;;;5122283;28;20284;-91
2022/05/31 03:22:40;;;;;;;12.27;8.17;;;14.10;63.30;;;;;;5096696;28;20217;-91
2022/05/31 03:25:18;;;;;;;13.40;8.77;;;14.10;63.30;;;;;;5104721;28;20214;-91
2022/05/31 03:27:47;;;;;;;9.57;7.73;;;14.00;63.60;;;;;;5100774;28;20316;-94
2022/05/31 03:30:18;;;;;;;10.87;8.00;;;14.00;63.20;;;;;;5104092;28;20240;-91
2022/05/31 03:32:46;;;;;;;15.50;8.23;;;14.00;63.60;;;;;;5104167;28;20501;-91
2022/05/31 03:35:15;;;;;;;11.70;7.43;;;14.00;63.50;;;;;;5109862;28;20702;-90
2022/05/31 03:37:44;;;;;;;15.17;8.40;;;14.00;63.60;;;;;;5099361;28;20236;-91
2022/05/31 03:40:55;;;;;;;15.30;9.07;;;14.00;63.70;;;;;;5102736;28;20214;-91
2022/05/31 03:43:01;;;;;;;14.30;8.70;;;14.00;63.80;;;;;;5114688;28;20215;-92
2022/05/31 03:45:34;;;;;;;10.77;7.63;;;14.00;63.80;;;;;;5105433;28;20213;-92
2022/05/31 03:48:01;;;;;;;12.17;7.80;;;13.90;64.20;;;;;;5109408;28;20738;-92
2022/05/31 03:50:35;;;;;;;10.90;7.97;;;13.90;63.90;;;;;;5106766;28;20216;-91
2022/05/31 03:53:03;;;;;;;12.63;8.33;;;13.90;64.20;;;;;;5095191;28;20629;-91
2022/05/31 03:55:32;;;;;;;13.87;8.30;;;13.90;64.20;;;;;;5102738;28;20955;-93
2022/05/31 03:57:59;;;;;;;11.27;8.93;;;13.90;64.20;;;;;;5115143;28;20254;-93
2022/05/31 04:00:26;;;;;;;17.70;10.07;;;13.90;64.20;;;;;;5098550;28;20249;-93
2022/05/31 04:02:57;;;;;;;13.00;8.50;;;13.90;64.30;;;;;;5116539;28;20284;-92
2022/05/31 04:05:25;;;;;;;13.30;9.00;;;13.90;64.70;;;;;;5105545;28;20212;-93
2022/05/31 04:07:53;;;;;;;13.40;9.13;;;13.90;64.60;;;;;;5091115;28;20579;-93
2022/05/31 04:10:20;;;;;;;19.07;10.90;;;14.00;64.70;;;;;;5091891;28;20212;-92
2022/05/31 04:12:48;;;;;;;12.57;9.00;;;14.00;64.90;;;;;;5108842;28;20323;-93
2022/05/31 04:15:18;;;;;;;22.43;11.50;;;14.00;64.90;;;;;;5106024;28;20296;-92
2022/05/31 04:17:45;;;;;;;15.83;9.77;;;13.90;64.80;;;;;;5098167;28;20663;-93
2022/05/31 04:20:14;;;;;;;18.97;10.07;;;14.00;64.70;;;;;;5103611;28;20378;-92
2022/05/31 04:22:41;;;;;;;14.77;9.07;;;14.00;65.10;;;;;;5095074;28;20202;-92
2022/05/31 04:25:10;;;;;;;13.77;8.63;;;14.00;65.80;;;;;;5106778;28;20296;-93
2022/05/31 04:27:38;;;;;;;15.07;9.17;;;14.00;65.60;;;;;;5103545;28;20230;-91
2022/05/31 04:30:06;;;;;;;17.03;10.17;;;14.00;65.70;;;;;;5093515;28;20217;-93
2022/05/31 04:32:33;;;;;;;18.63;10.13;;;14.00;66.00;;;;;;5104115;28;20217;-94
2022/05/31 04:35:01;;;;;;;14.83;9.53;;;14.10;66.10;;;;;;5096729;28;20210;-95
2022/05/31 04:37:30;;;;;;;13.00;9.20;;;14.10;66.10;;;;;;5096719;28;20720;-93
2022/05/31 04:40:00;;;;;;;14.60;10.30;;;14.10;66.40;;;;;;5111155;28;20217;-94
2022/05/31 04:42:28;;;;;;;17.43;11.13;;;14.10;66.20;;;;;;5093265;28;20240;-96
2022/05/31 04:44:55;;;;;;;17.93;11.47;;;14.10;66.00;;;;;;5091906;28;20202;-93
2022/05/31 04:47:22;;;;;;;24.30;13.47;;;14.10;65.80;;;;;;5094934;28;20717;-93
2022/05/31 04:49:49;;;;;;;21.50;12.43;;;14.20;65.80;;;;;;5090998;28;20238;-95
2022/05/31 04:52:16;;;;;;;15.63;11.47;;;14.20;66.00;;;;;;5100796;28;20245;-94
2022/05/31 04:54:45;;;;;;;15.00;11.10;;;14.20;65.70;;;;;;5102018;28;20301;-93
2022/05/31 04:57:12;;;;;;;18.17;11.80;;;14.20;65.60;;;;;;5097537;28;20245;-94
2022/05/31 04:59:39;;;;;;;19.10;12.27;;;14.20;65.60;;;;;;5104236;28;20206;-94
2022/05/31 05:02:07;;;;;;;22.33;13.07;;;14.20;65.20;;;;;;5100600;28;20295;-93
2022/05/31 05:04:35;;;;;;;21.70;13.93;;;14.20;65.20;;;;;;5110081;28;20262;-92
2022/05/31 05:07:04;;;;;;;21.97;12.23;;;14.20;65.60;;;;;;5085337;28;20694;-93
2022/05/31 05:09:33;;;;;;;17.60;12.60;;;14.20;66.10;;;;;;5093538;28;20237;-93
2022/05/31 05:12:09;;;;;;;18.20;12.57;;;14.20;66.10;;;;;;5090774;28;20217;-94
2022/05/31 05:14:39;;;;;;;18.93;11.80;;;14.20;66.40;;;;;;5093948;28;20309;-92
2022/05/31 05:17:07;;;;;;;16.33;12.13;;;14.30;66.30;;;;;;5090715;28;20211;-92
2022/05/31 05:19:34;;;;;;;15.57;11.70;;;14.30;65.90;;;;;;5089941;28;20766;-92
2022/05/31 05:22:01;;;;;;;19.80;12.20;;;14.30;66.30;;;;;;5096035;28;20225;-92
2022/05/31 05:24:29;;;;;;;22.70;13.43;;;14.30;66.90;;;;;;5102251;28;20217;-92
2022/05/31 05:26:56;;;;;;;20.00;12.13;;;14.30;67.30;;;;;;5104160;28;20721;-93
2022/05/31 05:32:25;;;;;;;18.37;12.63;;;14.40;67.20;;;;;;5003296;28;20200;-91
2022/05/31 05:34:54;;;;;;;21.83;14.20;;;14.40;66.70;;;;;;4990497;28;20297;-91
2022/05/31 05:37:21;;;;;;;21.40;13.20;;;14.40;67.20;;;;;;5039215;28;20268;-91
2022/05/31 05:39:48;;;;;;;17.70;13.00;;;14.40;68.00;;;;;;5091225;28;20899;-92
2022/05/31 05:42:16;;;;;;;19.53;12.83;;;14.50;68.40;;;;;;5089263;28;20238;-91
2022/05/31 05:44:48;;;;;;;18.83;12.33;;;14.50;68.60;;;;;;5090679;28;20271;-91
2022/05/31 05:47:15;;;;;;;18.57;12.67;;;14.50;69.20;;;;;;5098352;28;20293;-91
2022/05/31 05:49:43;;;;;;;15.53;11.93;;;14.50;68.30;;;;;;5109575;28;20209;-90
2022/05/31 05:52:14;;;;;;;24.27;12.77;;;14.50;68.30;;;;;;5095270;28;20289;-91
2022/05/31 05:54:41;;;;;;;20.20;12.87;;;14.60;69.10;;;;;;5096444;28;20580;-92
2022/05/31 05:57:08;;;;;;;17.23;12.40;;;14.60;68.90;;;;;;5109274;28;21082;-91
2022/05/31 05:59:35;;;;;;;17.93;12.33;;;14.60;68.50;;;;;;5098585;28;20951;-91
2022/05/31 06:02:10;;;;;;;16.20;12.20;;;14.60;68.90;;;;;;5107221;28;20213;-93
2022/05/31 06:04:42;;;;;;;23.03;13.10;;;14.70;69.90;;;;;;5107586;28;20321;-92
2022/05/31 06:07:32;;;;;;;13.93;10.53;;;14.70;69.80;;;;;;5101651;28;20289;-94
2022/05/31 06:10:02;;;;;;;18.47;12.00;;;14.70;69.50;;;;;;5105885;28;20214;-91
2022/05/31 06:12:37;;;;;;;14.37;10.43;;;14.70;68.50;;;;;;5114703;28;20675;-91
2022/05/31 06:15:10;;;;;;;17.97;11.80;;;14.80;68.50;;;;;;5115019;28;20210;-92
2022/05/31 06:17:42;;;;;;;16.80;12.07;;;14.80;67.80;;;;;;5113683;28;20217;-92
2022/05/31 06:20:10;;;;;;;15.70;11.50;;;14.80;68.50;;;;;;5116301;28;20240;-91
2022/05/31 06:22:39;;;;;;;19.47;11.87;;;14.90;68.10;;;;;;5115054;28;20210;-92
2022/05/31 06:25:07;;;;;;;17.17;11.97;;;14.90;67.90;;;;;;5093859;28;20280;-90
2022/05/31 06:27:34;;;;;;;22.57;13.03;;;14.90;67.80;;;;;;5095889;28;20276;-90
2022/05/31 06:30:04;;;;;;;18.70;12.10;;;14.90;67.70;;;;;;5102779;28;20248;-91
2022/05/31 06:32:32;;;;;;;16.60;11.73;;;14.90;67.80;;;;;;5095701;28;20666;-91
2022/05/31 06:35:02;;;;;;;16.33;11.90;;;15.00;68.70;;;;;;5094904;28;20207;-92
2022/05/31 06:37:30;;;;;;;18.83;12.57;;;15.00;68.80;;;;;;5093363;28;20697;-91
2022/05/31 06:39:57;;;;;;;18.47;12.73;;;15.00;68.70;;;;;;5091613;28;20351;-91
2022/05/31 06:42:25;;;;;;;20.10;12.50;;;15.00;68.80;;;;;;5091601;28;20203;-91
2022/05/31 06:44:52;;;;;;;20.73;12.23;;;15.00;68.70;;;;;;5091509;28;20256;-92
2022/05/31 06:47:19;;;;;;;18.13;12.43;;;15.00;67.80;;;;;;5107336;28;20310;-90
2022/05/31 06:49:45;;;;;;;20.60;12.27;;;15.10;68.40;;;;;;5105864;28;20206;-90
2022/05/31 06:57:47;;;;;;;16.30;11.10;;;15.10;67.70;;;;;;5093102;28;20226;-92
2022/05/31 07:00:16;;;;;;;17.50;10.30;;;15.20;67.70;;;;;;5091495;28;20244;-91
2022/05/31 07:02:43;;;;;;;21.17;11.73;;;15.20;67.40;;;;;;5093156;28;20213;-92
2022/05/31 07:05:11;;;;;;;13.70;9.83;;;15.30;67.50;;;;;;5093082;28;20289;-91
2022/05/31 07:07:41;;;;;;;14.43;8.97;;;15.30;67.40;;;;;;5092153;28;20240;-92
2022/05/31 07:10:10;;;;;;;17.40;10.10;;;15.40;67.80;;;;;;5086809;28;20581;-93
2022/05/31 07:12:40;;;;;;;14.13;9.00;;;15.50;67.10;;;;;;5111809;28;20212;-92
2022/05/31 07:15:08;;;;;;;13.63;8.13;;;15.60;66.60;;;;;;5111265;28;20233;-91
2022/05/31 07:17:35;;;;;;;13.13;8.17;;;15.60;66.50;;;;;;5106915;28;20219;-91
2022/05/31 07:20:03;;;;;;;13.57;7.10;;;15.70;66.40;;;;;;5090576;28;20673;-89
2022/05/31 07:22:30;;;;;;;13.23;8.20;;;15.80;65.80;;;;;;5090492;28;20677;-90
2022/05/31 07:24:59;;;;;;;14.87;8.63;;;15.90;65.60;;;;;;5090829;28;20199;-92
2022/05/31 07:27:26;;;;;;;15.07;7.30;;;16.00;65.80;;;;;;5109290;28;20229;-91
2022/05/31 07:29:54;;;;;;;16.73;8.30;;;16.00;64.70;;;;;;5112258;28;20213;-91
2022/05/31 07:32:21;;;;;;;13.00;7.93;;;16.10;64.10;;;;;;5112335;28;20210;-93
2022/05/31 07:34:50;;;;;;;19.77;9.40;;;16.30;64.20;;;;;;5111663;28;20396;-92
2022/05/31 07:37:18;;;;;;;14.60;9.00;;;16.30;64.30;;;;;;5106049;28;20268;-91
2022/05/31 07:39:45;;;;;;;16.27;8.53;;;16.40;63.90;;;;;;5091183;28;20212;-91
2022/05/31 07:42:15;;;;;;;13.23;7.47;;;16.50;63.20;;;;;;5090773;28;20582;-91
2022/05/31 07:44:43;;;;;;;19.47;8.03;;;16.60;62.90;;;;;;5090059;28;20703;-92
2022/05/31 07:47:11;;;;;;;10.87;6.60;;;16.70;62.40;;;;;;5090231;28;20343;-90
2022/05/31 07:49:38;;;;;;;17.10;8.10;;;16.80;62.20;;;;;;5090207;28;20280;-91
2022/05/31 07:52:08;;;;;;;12.73;7.00;;;16.90;61.80;;;;;;5093294;28;20252;-90
2022/05/31 07:54:36;;;;;;;8.50;5.40;;;17.00;61.40;;;;;;5110050;28;20303;-94
2022/05/31 07:57:05;;;;;;;14.27;7.17;;;17.00;60.90;;;;;;5109026;28;20244;-90
2022/05/31 07:59:35;;;;;;;14.37;7.57;;;17.10;60.40;;;;;;5111299;28;20209;-92
2022/05/31 08:02:03;;;;;;;18.20;8.80;;;17.20;60.60;;;;;;5106070;28;20217;-92
2022/05/31 08:04:30;;;;;;;17.20;8.07;;;17.30;60.20;;;;;;5092995;28;20219;-91
2022/05/31 08:06:59;;;;;;;12.87;6.73;;;17.40;60.70;;;;;;5091551;28;20700;-92
2022/05/31 08:09:27;;;;;;;16.00;7.50;;;17.40;59.70;;;;;;5095875;28;20209;-91
2022/05/31 08:11:55;;;;;;;16.13;7.43;;;17.50;59.90;;;;;;5108313;28;20716;-89
2022/05/31 08:14:22;;;;;;;14.97;8.17;;;17.60;59.90;;;;;;5108173;28;20912;-90
2022/05/31 08:16:55;;;;;;;12.50;6.37;;;17.70;59.20;;;;;;5100268;28;20560;-93
2022/05/31 08:19:24;;;;;;;12.87;7.47;;;17.80;59.00;;;;;;5094045;28;20287;-94
2022/05/31 08:21:55;;;;;;;7.83;5.77;;;17.90;58.90;;;;;;5097234;28;20222;-94
2022/05/31 08:24:25;;;;;;;10.10;6.10;;;18.00;59.00;;;;;;5098336;28;20561;-94
2022/05/31 08:26:59;;;;;;;9.93;6.53;;;18.00;59.10;;;;;;5101471;28;20601;-94
2022/05/31 08:29:33;;;;;;;13.53;7.60;;;18.20;58.40;;;;;;5096908;28;20216;-96
2022/05/31 08:32:06;;;;;;;12.73;6.73;;;18.20;58.80;;;;;;5098656;28;20210;-94
2022/05/31 08:34:34;;;;;;;10.63;5.97;;;18.40;58.70;;;;;;5112423;28;20220;-93
2022/05/31 08:37:06;;;;;;;10.57;6.03;;;18.50;58.80;;;;;;5112098;28;20309;-93
2022/05/31 08:39:33;;;;;;;8.73;6.00;;;18.60;58.00;;;;;;5107451;28;20286;-94
2022/05/31 08:42:07;;;;;;;11.77;6.40;;;18.80;58.40;;;;;;5111527;28;20677;-95
2022/05/31 08:45:02;;;;;;;15.43;7.63;;;18.90;58.50;;;;;;5111226;28;20309;-92
2022/05/31 08:47:43;;;;;;;10.53;6.47;;;19.20;57.70;;;;;;5105250;28;20286;-96
2022/05/31 08:53:19;;;;;;;8.60;5.13;;;19.60;57.80;;;;;;5095552;28;20242;-95
2022/05/31 08:58:44;;;;;;;10.43;5.57;;;20.00;57.00;;;;;;5112046;28;20562;-94
2022/05/31 09:01:14;;;;;;;10.47;6.13;;;20.20;56.90;;;;;;5108949;28;20237;-95
2022/05/31 09:03:50;;;;;;;8.43;5.33;;;20.30;56.50;;;;;;5090301;28;20653;-93
2022/05/31 09:06:23;;;;;;;8.47;5.37;;;20.50;55.90;;;;;;5091102;28;20198;-92
2022/05/31 09:09:17;;;;;;;13.93;6.47;;;20.70;55.50;;;;;;5090794;28;20317;-93
2022/05/31 09:15:03;;;;;;;6.93;4.20;;;21.10;54.80;;;;;;5093746;28;20725;-95
2022/05/31 09:17:45;;;;;;;7.07;4.20;;;21.30;54.90;;;;;;5104226;28;20220;-91
2022/05/31 09:20:18;;;;;;;7.23;3.53;;;21.50;53.20;;;;;;5101300;28;20217;-92
2022/05/31 09:22:47;;;;;;;6.50;3.10;;;21.70;52.40;;;;;;5095658;28;20255;-94
2022/05/31 09:25:16;;;;;;;7.93;3.67;;;21.80;51.90;;;;;;5095715;28;20267;-95
2022/05/31 09:27:46;;;;;;;5.87;3.20;;;22.00;52.40;;;;;;5110575;28;20252;-92
2022/05/31 09:30:41;;;;;;;9.40;4.43;;;22.20;51.40;;;;;;5116801;28;20225;-95
2022/05/31 09:33:19;;;;;;;11.47;4.20;;;22.30;49.80;;;;;;5117590;28;20744;-96
2022/05/31 09:36:00;;;;;;;7.57;3.70;;;22.50;51.20;;;;;;5115918;28;20230;-93
2022/05/31 09:39:02;;;;;;;9.93;4.30;;;22.70;50.00;;;;;;5110092;28;20610;-94
2022/05/31 09:42:01;;;;;;;3.97;2.90;;;22.80;48.80;;;;;;5077418;28;20213;-96
2022/05/31 09:44:35;;;;;;;8.10;3.50;;;23.00;50.10;;;;;;5101034;28;20198;-93
2022/05/31 09:47:11;;;;;;;3.83;2.47;;;23.10;50.10;;;;;;5103206;28;20213;-94
2022/05/31 09:49:43;;;;;;;6.10;2.87;;;23.30;50.20;;;;;;5112502;28;20207;-90
2022/05/31 09:52:15;;;;;;;6.77;3.13;;;23.40;49.00;;;;;;5117694;28;20210;-93
2022/05/31 09:58:06;;;;;;;6.13;3.37;;;23.70;47.90;;;;;;5104981;28;20201;-93
2022/05/31 10:01:03;;;;;;;10.23;2.90;;;23.80;48.30;;;;;;5097124;28;20226;-95
2022/05/31 10:03:38;;;;;;;6.03;2.70;;;23.90;46.70;;;;;;5102331;28;20211;-96
2022/05/31 10:06:14;;;;;;;7.47;3.20;;;24.00;47.30;;;;;;5103804;28;20209;-95
2022/05/31 10:08:43;;;;;;;7.90;3.83;;;24.10;47.70;;;;;;5097500;28;20244;-90
2022/05/31 10:11:24;;;;;;;3.63;2.53;;;24.10;47.80;;;;;;5095930;28;20214;-92
2022/05/31 10:13:58;;;;;;;9.03;4.27;;;24.20;45.50;;;;;;5111127;28;20198;-93
2022/05/31 10:16:27;;;;;;;6.47;3.80;;;24.20;46.20;;;;;;5095972;28;20296;-91
2022/05/31 10:18:57;;;;;;;5.03;2.93;;;24.30;46.60;;;;;;5105398;28;20240;-92
2022/05/31 10:21:33;;;;;;;4.57;2.60;;;24.30;45.90;;;;;;5102333;28;20241;-92
2022/05/31 10:24:08;;;;;;;4.30;2.40;;;24.30;45.30;;;;;;5110596;28;20210;-92
2022/05/31 10:26:41;;;;;;;10.70;4.00;;;24.30;44.90;;;;;;5109717;28;20210;-91
2022/05/31 10:29:16;;;;;;;4.40;2.43;;;24.20;44.50;;;;;;5109064;28;20256;-93
2022/05/31 10:31:46;;;;;;;6.87;2.93;;;24.20;44.60;;;;;;5100599;28;20225;-93
2022/05/31 10:34:47;;;;;;;7.10;2.93;;;24.10;44.50;;;;;;5094177;28;20305;-92
2022/05/31 10:37:26;;;;;;;5.37;2.50;;;24.00;44.00;;;;;;5105879;28;20232;-90
2022/05/31 10:40:05;;;;;;;5.63;2.80;;;24.00;43.70;;;;;;5094659;28;20279;-92
2022/05/31 10:42:38;;;;;;;9.33;2.90;;;23.90;43.70;;;;;;5096492;28;20306;-95
2022/05/31 10:45:20;;;;;;;8.97;2.90;;;23.90;43.30;;;;;;5106691;28;20264;-96
2022/05/31 10:47:48;;;;;;;6.90;2.60;;;23.80;43.10;;;;;;5096422;28;20661;-95
2022/05/31 10:50:16;;;;;;;5.07;2.33;;;23.80;44.30;;;;;;5077893;28;20258;-92
2022/05/31 10:52:59;;;;;;;4.70;2.20;;;23.80;44.20;;;;;;5106528;28;20258;-94
2022/05/31 10:56:21;;;;;;;8.13;3.23;;;23.80;43.20;;;;;;5100205;28;20207;-92
2022/05/31 10:58:57;;;;;;;3.50;2.00;;;23.80;43.00;;;;;;5109422;28;20231;-93
2022/05/31 11:01:36;;;;;;;5.77;2.77;;;23.90;44.20;;;;;;5112732;28;20214;-94
2022/05/31 11:04:18;;;;;;;6.57;3.00;;;23.90;43.80;;;;;;5111886;28;20231;-92
2022/05/31 11:07:01;;;;;;;7.80;3.70;;;23.90;43.90;;;;;;5097549;28;20299;-92
2022/05/31 11:13:07;;;;;;;3.80;2.23;;;24.00;42.50;;;;;;5115430;28;20635;-88
2022/05/31 11:15:44;;;;;;;5.07;2.60;;;24.10;42.80;;;;;;5113396;28;20228;-91
2022/05/31 11:18:33;;;;;;;4.13;2.40;;;24.10;43.40;;;;;;5103329;28;20214;-93
2022/05/31 11:21:12;;;;;;;6.47;2.70;;;24.20;42.80;;;;;;5108871;28;20231;-94
2022/05/31 11:23:54;;;;;;;6.10;3.00;;;24.20;43.30;;;;;;5102313;28;20244;-90
2022/05/31 11:26:35;;;;;;;5.33;2.73;;;24.30;43.20;;;;;;5103709;28;20276;-93
2022/05/31 11:29:20;;;;;;;7.17;3.27;;;24.40;43.20;;;;;;5110155;28;20256;-90
2022/05/31 11:32:38;;;;;;;6.20;2.70;;;24.40;42.60;;;;;;5092337;28;20233;-92
2022/05/31 11:35:21;;;;;;;6.53;2.80;;;24.40;42.40;;;;;;5095796;28;20209;-92
2022/05/31 11:37:58;;;;;;;5.00;2.90;;;24.50;42.40;;;;;;5097960;28;20285;-90
2022/05/31 11:40:43;;;;;;;7.53;3.23;;;24.50;42.90;;;;;;5111793;28;20244;-89
2022/05/31 11:43:42;;;;;;;4.60;2.60;;;24.50;42.50;;;;;;5097627;28;20202;-90
2022/05/31 11:46:22;;;;;;;7.80;3.20;;;24.50;42.50;;;;;;5066641;23;20323;-93
2022/05/31 11:48:58;;;;;;;7.27;2.93;;;24.50;42.90;;;;;;5030273;28;20208;-94
2022/05/31 11:51:38;;;;;;;6.07;3.23;;;24.60;42.80;;;;;;5032181;28;20215;-88
2022/05/31 11:54:31;;;;;;;6.53;3.60;;;24.60;42.50;;;;;;5034323;28;20209;-92
2022/05/31 11:57:09;;;;;;;6.37;2.93;;;24.60;41.90;;;;;;5035199;28;20284;-88
2022/05/31 11:59:41;;;;;;;4.53;2.40;;;24.60;42.40;;;;;;5033066;28;20291;-89
2022/05/31 12:02:18;;;;;;;6.40;2.57;;;24.50;41.60;;;;;;5031795;28;20224;-92
2022/05/31 12:04:51;;;;;;;8.37;4.20;;;24.50;42.80;;;;;;5026658;28;20299;-89
2022/05/31 12:07:27;;;;;;;9.47;4.50;;;24.50;42.40;;;;;;5030016;28;20258;-91
2022/05/31 12:09:58;;;;;;;6.47;3.27;;;24.40;42.10;;;;;;5032573;28;20294;-90
2022/05/31 12:12:30;;;;;;;6.47;2.77;;;24.40;42.80;;;;;;5032240;28;20270;-92
2022/05/31 12:15:05;;;;;;;11.53;3.10;;;24.40;41.90;;;;;;5032959;28;20702;-93
2022/05/31 12:17:53;;;;;;;7.00;2.87;;;24.40;42.10;;;;;;5031223;28;20207;-90
2022/05/31 12:20:31;;;;;;;6.13;2.83;;;24.30;41.60;;;;;;5036579;28;20746;-93
2022/05/31 12:23:04;;;;;;;6.77;3.33;;;24.20;42.30;;;;;;5029855;28;20215;-92
2022/05/31 12:25:38;;;;;;;4.07;2.30;;;24.20;42.70;;;;;;5033289;28;20696;-93
2022/05/31 12:28:13;;;;;;;7.83;3.37;;;24.10;42.80;;;;;;5031792;28;20287;-93
2022/05/31 12:30:59;;;;;;;7.80;2.77;;;24.00;42.90;;;;;;5030176;28;20204;-93
2022/05/31 12:33:39;;;;;;;9.90;4.17;;;24.00;42.60;;;;;;5025025;28;20205;-93
2022/05/31 12:36:08;;;;;;;11.57;4.93;;;24.00;43.30;;;;;;5021594;28;20224;-91
2022/05/31 12:39:01;;;;;;;7.70;3.07;;;23.90;43.20;;;;;;5030772;28;20219;-90
2022/05/31 12:41:37;;;;;;;8.70;3.27;;;23.90;42.70;;;;;;5028122;28;20196;-93
2022/05/31 12:44:14;;;;;;;7.87;3.43;;;23.90;43.60;;;;;;5031107;28;20254;-94
2022/05/31 12:46:46;;;;;;;5.70;2.70;;;23.90;43.30;;;;;;5016161;28;20227;-92
2022/05/31 12:49:24;;;;;;;4.67;2.50;;;24.00;43.60;;;;;;5015868;28;20275;-90
2022/05/31 12:55:51;;;;;;;6.60;3.07;;;24.10;43.30;;;;;;4959950;28;20208;-95
2022/05/31 12:58:47;;;;;;;7.00;2.57;;;24.10;43.10;;;;;;4954045;29;20293;-91
2022/05/31 13:01:34;;;;;;;4.33;2.43;;;24.20;43.50;;;;;;4952473;29;20231;-92
2022/05/31 13:04:28;;;;;;;10.33;3.73;;;24.30;43.30;;;;;;5008045;28;20323;-92
2022/05/31 13:07:19;;;;;;;9.67;2.77;;;24.40;43.40;;;;;;5034596;28;20300;-91
2022/05/31 13:09:48;;;;;;;7.10;3.23;;;24.50;43.70;;;;;;5032834;28;20240;-94
2022/05/31 13:20:57;;;;;;;6.20;3.20;;;24.50;43.90;;;;;;5014832;28;20250;-95
2022/05/31 13:23:28;;;;;;;6.10;3.23;;;24.40;44.00;;;;;;5036658;28;20258;-92
2022/05/31 13:26:00;;;;;;;8.57;3.90;;;24.30;44.30;;;;;;5033389;28;20265;-90
2022/05/31 13:28:32;;;;;;;6.00;2.93;;;24.20;45.30;;;;;;5022889;28;20189;-90
2022/05/31 13:31:28;;;;;;;8.40;3.13;;;24.10;46.20;;;;;;5033545;28;20258;-90
2022/05/31 13:34:01;;;;;;;6.83;3.30;;;23.90;47.10;;;;;;5032100;28;20325;-87
2022/05/31 13:36:32;;;;;;;8.07;3.80;;;23.70;47.60;;;;;;5032041;28;20371;-87
2022/05/31 13:39:04;;;;;;;9.27;3.87;;;23.50;48.50;;;;;;5032807;28;20306;-87
2022/05/31 13:41:32;;;;;;;9.00;3.13;;;23.30;49.20;;;;;;5031837;28;20239;-89
2022/05/31 13:44:02;;;;;;;4.70;2.43;;;23.20;49.00;;;;;;5022471;28;20211;-94
2022/05/31 13:46:32;;;;;;;10.23;3.23;;;23.00;49.10;;;;;;5013342;28;20734;-96
2022/05/31 13:49:06;;;;;;;6.20;2.70;;;23.00;49.10;;;;;;5013740;28;20267;-93